Time;durP1;ratioP1;P1;durP2;ratioP2;P2;SDS_P1;SDS_P2;PMS_P1;PMS_P2;Temp;Humidity;BMP_temperature;BMP_pressure;BME280_temperature;BME280_humidity;BME280_pressure;Samples;Min_cycle;Max_cycle;Signal;HPM_P1;HPM_P2
2022/01/27 00:01:47;;;;;;;26.23;13.65;;;;;;;0.63;78.52;97877.56;5037559;28;20144;-78
2022/01/27 00:04:19;;;;;;;30.95;15.63;;;;;;;0.64;78.82;97871.53;5038470;28;20050;-78
2022/01/27 00:06:46;;;;;;;28.50;14.63;;;;;;;0.65;78.68;97868.03;5037377;28;20072;-78
2022/01/27 00:09:23;;;;;;;29.00;14.50;;;;;;;0.64;78.78;97861.25;5036515;28;20049;-78
2022/01/27 00:11:51;;;;;;;29.52;13.85;;;;;;;0.61;78.18;97862.25;5036805;28;20140;-78
2022/01/27 00:14:21;;;;;;;26.10;14.30;;;;;;;0.57;78.36;97862.53;5037135;28;20045;-77
2022/01/27 00:16:58;;;;;;;29.38;14.38;;;;;;;0.57;78.30;97859.97;5036860;28;20407;-78
2022/01/27 00:19:26;;;;;;;25.17;13.02;;;;;;;0.59;78.76;97858.97;5036553;28;20053;-78
2022/01/27 00:21:54;;;;;;;24.15;12.20;;;;;;;0.61;78.32;97862.25;5036527;28;20061;-78
2022/01/27 00:24:21;;;;;;;24.75;13.20;;;;;;;0.63;78.19;97867.28;5036410;28;20046;-78
2022/01/27 00:26:49;;;;;;;27.52;13.75;;;;;;;0.63;77.96;97866.47;5036492;28;20068;-78
2022/01/27 00:29:16;;;;;;;25.00;12.52;;;;;;;0.62;77.70;97863.09;5036788;28;20049;-78
2022/01/27 00:31:44;;;;;;;28.00;13.35;;;;;;;0.62;77.79;97863.09;5036586;28;20069;-78
2022/01/27 00:34:13;;;;;;;26.65;13.68;;;;;;;0.63;77.80;97858.75;5036904;28;20057;-78
2022/01/27 00:36:40;;;;;;;25.02;13.25;;;;;;;0.60;77.75;97860.59;5036087;28;20053;-78
2022/01/27 00:39:08;;;;;;;24.70;13.75;;;;;;;0.57;77.92;97862.53;5037033;28;20053;-78
2022/01/27 00:41:35;;;;;;;28.23;14.10;;;;;;;0.58;77.63;97862.41;5051126;28;20109;-78
2022/01/27 00:44:04;;;;;;;23.65;13.48;;;;;;;0.60;78.08;97867.47;5049752;28;20420;-77
2022/01/27 00:46:32;;;;;;;25.67;14.07;;;;;;;0.62;78.24;97868.22;5048876;28;20053;-78
2022/01/27 00:49:00;;;;;;;24.25;14.35;;;;;;;0.67;78.71;97870.53;5036022;28;20052;-78
2022/01/27 00:51:34;;;;;;;30.02;14.40;;;;;;;0.69;78.80;97866.94;5036209;28;20045;-78
2022/01/27 00:54:06;;;;;;;24.80;12.80;;;;;;;0.70;78.07;97871.19;5036156;28;20061;-78
2022/01/27 00:56:43;;;;;;;29.83;14.75;;;;;;;0.70;78.95;97863.47;5035932;28;20466;-78
2022/01/27 01:02:06;;;;;;;27.27;13.25;;;;;;;0.74;78.08;97866.66;5030613;28;20455;-78
2022/01/27 01:04:37;;;;;;;24.23;12.02;;;;;;;0.71;77.55;97862.53;5036493;28;20423;-78
2022/01/27 01:07:08;;;;;;;26.42;13.50;;;;;;;0.71;77.87;97857.41;5035816;28;20057;-78
2022/01/27 01:10:28;;;;;;;24.52;12.60;;;;;;;0.70;78.02;97854.91;5036147;28;20054;-78
2022/01/27 01:15:42;;;;;;;21.88;12.05;;;;;;;0.66;78.07;97859.44;5091533;28;20709;-79
2022/01/27 01:18:25;;;;;;;30.15;14.50;;;;;;;0.65;78.00;97857.75;5091876;28;20048;-79
2022/01/27 01:21:18;;;;;;;25.30;13.30;;;;;;;0.64;78.36;97861.25;5091888;28;20425;-79
2022/01/27 01:29:51;;;;;;;28.25;13.15;;;;;;;0.67;78.52;97850.78;5094396;28;20055;-80
2022/01/27 01:32:32;;;;;;;25.15;12.23;;;;;;;0.67;78.23;97855.94;5108743;28;20051;-79
2022/01/27 01:35:00;;;;;;;28.92;13.20;;;;;;;0.67;77.87;97847.41;5106133;28;20055;-79
2022/01/27 01:37:28;;;;;;;25.23;12.57;;;;;;;0.61;77.96;97840.88;5090549;28;20048;-79
2022/01/27 01:39:55;;;;;;;24.63;12.57;;;;;;;0.58;77.65;97846.19;5093148;28;20040;-78
2022/01/27 01:42:23;;;;;;;25.20;12.27;;;;;;;0.56;78.20;97842.88;5114642;28;20054;-78
2022/01/27 01:44:50;;;;;;;25.90;12.48;;;;;;;0.55;77.27;97842.06;5111855;28;20048;-79
2022/01/27 01:47:20;;;;;;;26.73;13.10;;;;;;;0.51;77.17;97837.22;5080341;22;20049;-80
2022/01/27 01:49:48;;;;;;;30.33;15.13;;;;;;;0.47;76.98;97830.59;5050055;28;20060;-78
2022/01/27 01:52:15;;;;;;;29.83;14.65;;;;;;;0.44;76.97;97828.19;5050816;28;20041;-78
2022/01/27 01:54:43;;;;;;;29.77;14.63;;;;;;;0.43;77.53;97826.53;5049867;28;20053;-78
2022/01/27 01:57:11;;;;;;;28.98;13.18;;;;;;;0.44;77.58;97817.91;5050406;28;20056;-79
2022/01/27 01:59:38;;;;;;;24.85;12.40;;;;;;;0.47;77.89;97807.50;5050967;28;20046;-78
2022/01/27 02:02:06;;;;;;;31.27;12.88;;;;;;;0.49;77.21;97810.78;5051516;28;20584;-79
2022/01/27 02:04:35;;;;;;;32.78;14.75;;;;;;;0.46;77.19;97811.81;5051339;28;20053;-78
2022/01/27 02:07:09;;;;;;;24.25;12.55;;;;;;;0.49;78.03;97811.63;5051669;28;20051;-79
2022/01/27 02:09:51;;;;;;;26.75;13.30;;;;;;;0.52;78.08;97803.72;5048953;28;20056;-79
2022/01/27 02:18:00;;;;;;;29.75;13.00;;;;;;;0.56;78.07;97814.66;5051999;28;20057;-81
2022/01/27 02:20:30;;;;;;;28.67;14.48;;;;;;;0.57;78.82;97813.75;5050139;28;20045;-79
2022/01/27 02:22:57;;;;;;;27.23;14.50;;;;;;;0.59;78.77;97806.75;5048246;28;20499;-77
2022/01/27 02:25:26;;;;;;;27.58;13.93;;;;;;;0.60;78.51;97816.13;5044736;28;20053;-79
2022/01/27 02:27:53;;;;;;;29.95;14.50;;;;;;;0.61;78.48;97810.06;5035173;28;20079;-77
2022/01/27 02:30:22;;;;;;;26.42;13.68;;;;;;;0.62;78.70;97822.00;5035563;28;20045;-78
2022/01/27 02:32:52;;;;;;;31.40;14.65;;;;;;;0.64;79.04;97824.47;5035197;28;20055;-78
2022/01/27 02:35:21;;;;;;;33.15;15.63;;;;;;;0.65;79.01;97815.84;5037431;28;20049;-78
2022/01/27 02:37:51;;;;;;;29.80;14.65;;;;;;;0.68;79.29;97820.78;5038046;28;20053;-77
2022/01/27 02:40:24;;;;;;;30.40;14.75;;;;;;;0.69;78.76;97810.44;5040696;28;20053;-78
2022/01/27 02:42:52;;;;;;;35.42;16.25;;;;;;;0.64;77.53;97811.66;5035846;28;20049;-80
2022/01/27 02:45:31;;;;;;;33.70;15.43;;;;;;;0.56;77.13;97815.47;5034972;28;20049;-77
2022/01/27 02:47:59;;;;;;;33.28;15.43;;;;;;;0.56;78.21;97809.50;5036429;28;20053;-80
2022/01/27 02:50:26;;;;;;;37.40;17.13;;;;;;;0.58;78.37;97805.13;5039876;28;20049;-79
2022/01/27 02:52:55;;;;;;;35.50;15.48;;;;;;;0.59;78.50;97806.75;5040795;28;20060;-78
2022/01/27 02:55:23;;;;;;;34.33;16.23;;;;;;;0.61;78.67;97805.78;5038388;28;20046;-80
2022/01/27 02:57:50;;;;;;;35.03;17.23;;;;;;;0.63;78.89;97797.13;5037219;28;20049;-80
2022/01/27 03:00:18;;;;;;;36.25;15.82;;;;;;;0.65;78.56;97810.72;5037752;28;20404;-78
2022/01/27 03:02:46;;;;;;;38.40;15.65;;;;;;;0.62;78.42;97809.16;5037908;28;20064;-78
2022/01/27 03:05:13;;;;;;;31.55;15.25;;;;;;;0.58;76.99;97807.69;5037995;28;20049;-78
2022/01/27 03:07:41;;;;;;;34.60;16.77;;;;;;;0.59;78.44;97799.06;5036848;28;20496;-78
2022/01/27 03:10:10;;;;;;;35.88;15.90;;;;;;;0.61;78.05;97812.63;5038197;28;20049;-80
2022/01/27 03:12:38;;;;;;;32.47;15.20;;;;;;;0.59;77.42;97810.16;5040016;28;20049;-79
2022/01/27 03:15:07;;;;;;;38.80;16.98;;;;;;;0.59;77.77;97809.31;5039258;28;20041;-80
2022/01/27 03:17:35;;;;;;;35.22;16.23;;;;;;;0.61;78.19;97802.34;5039330;28;20049;-80
2022/01/27 03:20:03;;;;;;;34.60;16.65;;;;;;;0.66;78.63;97797.78;5038602;28;20111;-80
2022/01/27 03:22:31;;;;;;;35.78;17.30;;;;;;;0.69;78.41;97799.34;5038300;28;20045;-81
2022/01/27 03:24:58;;;;;;;38.92;16.90;;;;;;;0.69;77.93;97794.22;5038380;28;20045;-80
2022/01/27 03:27:28;;;;;;;35.17;16.40;;;;;;;0.68;78.17;97790.84;5038727;28;20049;-80
2022/01/27 03:29:55;;;;;;;34.53;15.68;;;;;;;0.67;77.55;97785.78;5039303;28;20049;-80
2022/01/27 03:32:25;;;;;;;38.40;17.33;;;;;;;0.63;77.05;97785.13;5039244;28;20057;-80
2022/01/27 03:34:52;;;;;;;35.40;16.75;;;;;;;0.60;76.82;97791.25;5038448;28;20049;-80
2022/01/27 03:37:20;;;;;;;35.92;17.13;;;;;;;0.60;77.42;97793.84;5037479;28;20056;-79
2022/01/27 03:39:48;;;;;;;35.78;16.73;;;;;;;0.61;77.58;97792.09;5038973;28;20053;-80
2022/01/27 03:42:15;;;;;;;37.30;16.35;;;;;;;0.59;77.59;97788.78;5038243;28;20057;-80
2022/01/27 03:44:44;;;;;;;38.42;18.58;;;;;;;0.58;77.99;97794.84;5038425;28;20045;-81
2022/01/27 03:47:12;;;;;;;33.40;16.15;;;;;;;0.59;77.89;97796.47;5037613;28;20478;-82
2022/01/27 03:49:40;;;;;;;41.63;17.13;;;;;;;0.63;78.25;97792.81;5038096;28;20503;-80
2022/01/27 03:52:07;;;;;;;35.80;16.33;;;;;;;0.66;78.21;97784.97;5038047;28;20431;-82
2022/01/27 03:54:35;;;;;;;36.95;17.50;;;;;;;0.68;77.49;97789.97;5038644;28;20057;-81
2022/01/27 03:57:03;;;;;;;38.38;17.05;;;;;;;0.67;77.66;97772.94;5036967;28;20506;-80
2022/01/27 03:59:31;;;;;;;36.72;17.08;;;;;;;0.66;77.78;97772.13;5037883;28;20053;-77
2022/01/27 04:02:03;;;;;;;35.45;16.88;;;;;;;0.67;77.38;97765.22;5034507;28;20056;-78
2022/01/27 04:04:32;;;;;;;33.95;17.10;;;;;;;0.63;77.27;97764.56;5035126;28;20053;-81
2022/01/27 04:06:59;;;;;;;36.35;17.88;;;;;;;0.61;77.27;97758.69;5033838;28;20049;-78
2022/01/27 04:09:28;;;;;;;37.92;17.63;;;;;;;0.56;77.00;97746.16;5035596;28;20054;-80
2022/01/27 04:11:56;;;;;;;39.38;18.65;;;;;;;0.53;77.08;97741.19;5036577;28;20049;-78
2022/01/27 04:14:24;;;;;;;36.00;16.02;;;;;;;0.52;76.23;97738.72;5036631;28;20053;-79
2022/01/27 04:16:51;;;;;;;39.47;19.23;;;;;;;0.46;76.68;97739.06;5035823;28;20052;-79
2022/01/27 04:19:20;;;;;;;40.10;19.55;;;;;;;0.44;76.99;97740.91;5036197;28;20049;-78
2022/01/27 04:21:50;;;;;;;39.03;17.42;;;;;;;0.44;77.29;97740.91;5035831;28;20499;-78
2022/01/27 04:24:18;;;;;;;39.67;19.50;;;;;;;0.46;77.59;97744.22;5036086;28;20077;-78
2022/01/27 04:26:50;;;;;;;36.53;18.23;;;;;;;0.49;77.74;97741.47;5035568;28;20056;-78
2022/01/27 04:29:21;;;;;;;41.38;19.55;;;;;;;0.52;77.83;97748.97;5035798;28;20045;-79
2022/01/27 04:31:49;;;;;;;38.25;18.30;;;;;;;0.56;77.27;97753.03;5032922;28;20522;-78
2022/01/27 04:34:20;;;;;;;44.38;21.02;;;;;;;0.58;77.58;97748.63;5032800;28;20123;-78
2022/01/27 04:36:48;;;;;;;44.42;19.63;;;;;;;0.60;77.67;97752.75;5032425;28;20454;-78
2022/01/27 04:39:20;;;;;;;42.92;21.88;;;;;;;0.63;77.57;97751.75;5033139;28;20084;-77
2022/01/27 04:41:53;;;;;;;42.03;20.15;;;;;;;0.61;77.52;97744.16;5033363;28;20120;-81
2022/01/27 04:44:27;;;;;;;;;;;;;;;0.63;77.13;97736.34;5033078;28;20068;-77
2022/01/27 04:47:00;;;;;;;42.08;20.58;;;;;;;0.63;77.84;97738.09;5032183;28;19928;-78
2022/01/27 04:49:29;;;;;;;41.33;19.77;;;;;;;0.64;77.64;97727.72;5032501;28;20053;-78
2022/01/27 04:51:56;;;;;;;42.38;20.38;;;;;;;0.66;77.86;97732.78;5033104;28;20045;-77
2022/01/27 04:54:28;;;;;;;43.58;20.83;;;;;;;0.67;78.14;97729.28;5032767;28;20076;-78
2022/01/27 04:56:59;;;;;;;45.00;20.65;;;;;;;0.68;78.18;97726.63;5032537;28;20049;-79
2022/01/27 04:59:30;;;;;;;45.00;21.00;;;;;;;0.69;78.35;97735.16;5034303;28;20141;-80
2022/01/27 05:02:01;;;;;;;43.08;19.52;;;;;;;0.69;78.29;97732.59;5036852;28;20427;-80
2022/01/27 05:04:34;;;;;;;40.03;19.55;;;;;;;0.68;77.58;97723.22;5036648;28;20060;-80
2022/01/27 05:07:02;;;;;;;;;;;;;;;0.69;77.63;97723.13;5036905;28;20064;-80
2022/01/27 05:09:29;;;;;;;38.45;18.85;;;;;;;0.66;77.25;97725.91;5036350;28;19931;-80
2022/01/27 05:12:07;;;;;;;47.70;21.30;;;;;;;0.63;77.63;97722.69;5036218;28;20065;-80
2022/01/27 05:14:35;;;;;;;42.97;20.15;;;;;;;0.59;77.45;97724.59;5038194;28;20053;-79
2022/01/27 05:17:03;;;;;;;47.45;20.13;;;;;;;0.58;77.51;97721.19;5037941;28;20049;-79
2022/01/27 05:19:32;;;;;;;45.40;19.95;;;;;;;0.62;78.14;97729.56;5037548;28;20049;-80
2022/01/27 05:21:59;;;;;;;49.03;22.88;;;;;;;0.66;78.66;97735.34;5037184;28;20053;-80
2022/01/27 05:24:27;;;;;;;47.83;22.73;;;;;;;0.68;78.46;97739.47;5037638;28;20046;-77
2022/01/27 05:26:54;;;;;;;39.83;20.02;;;;;;;0.66;77.06;97730.22;5035675;28;20050;-79
2022/01/27 05:29:22;;;;;;;50.67;22.05;;;;;;;0.61;77.30;97725.31;5036126;28;20056;-80
2022/01/27 05:31:50;;;;;;;43.83;20.85;;;;;;;0.57;76.56;97718.75;5034677;28;20057;-80
2022/01/27 05:34:18;;;;;;;44.67;21.25;;;;;;;0.56;77.24;97714.50;5034758;28;20053;-78
2022/01/27 05:36:46;;;;;;;45.65;20.75;;;;;;;0.57;77.34;97700.78;5035095;28;20045;-79
2022/01/27 05:39:14;;;;;;;47.90;23.30;;;;;;;0.57;77.71;97700.78;5034972;28;20050;-80
2022/01/27 05:41:42;;;;;;;45.22;22.02;;;;;;;0.55;77.05;97692.34;5034982;28;20100;-78
2022/01/27 05:44:10;;;;;;;48.03;22.13;;;;;;;0.54;77.25;97701.75;5034397;28;20050;-78
2022/01/27 05:46:38;;;;;;;50.15;23.88;;;;;;;0.55;77.17;97703.44;5034362;28;20080;-80
2022/01/27 05:49:05;;;;;;;54.40;26.13;;;;;;;0.55;77.03;97707.75;5034986;28;20050;-80
2022/01/27 05:51:34;;;;;;;76.43;29.30;;;;;;;0.58;78.03;97707.53;5034894;28;20446;-78
2022/01/27 05:54:03;;;;;;;45.10;21.52;;;;;;;0.62;77.84;97709.00;5035192;28;20050;-80
2022/01/27 05:56:30;;;;;;;47.20;22.02;;;;;;;0.64;78.24;97714.06;5033838;28;20510;-78
2022/01/27 05:58:58;;;;;;;45.50;20.38;;;;;;;0.67;78.16;97701.84;5033998;28;20495;-79
2022/01/27 06:01:26;;;;;;;42.83;21.58;;;;;;;0.67;77.64;97701.84;5037156;28;20127;-79
2022/01/27 06:03:54;;;;;;;46.35;23.38;;;;;;;0.66;77.27;97702.78;5038334;28;20049;-79
2022/01/27 06:06:21;;;;;;;48.40;22.80;;;;;;;0.66;77.58;97702.78;5037979;28;20049;-78
2022/01/27 06:08:49;;;;;;;49.35;22.63;;;;;;;0.66;77.30;97699.41;5040220;28;20053;-79
2022/01/27 06:11:17;;;;;;;52.40;25.75;;;;;;;0.64;77.23;97703.81;5039762;28;20526;-78
2022/01/27 06:13:45;;;;;;;51.95;22.73;;;;;;;0.59;77.31;97699.75;5039048;28;20431;-80
2022/01/27 06:16:12;;;;;;;50.83;24.02;;;;;;;0.59;77.34;97698.91;5037834;28;20418;-79
2022/01/27 06:18:41;;;;;;;46.92;22.75;;;;;;;0.59;77.38;97704.91;5039089;28;20051;-79
2022/01/27 06:21:10;;;;;;;48.50;23.45;;;;;;;0.64;77.76;97702.06;5036334;28;20049;-77
2022/01/27 06:23:37;;;;;;;51.22;24.17;;;;;;;0.67;77.27;97696.72;5034674;28;20060;-77
2022/01/27 06:26:06;;;;;;;54.28;24.20;;;;;;;0.69;77.37;97700.03;5034582;28;20046;-78
2022/01/27 06:28:35;;;;;;;48.75;23.08;;;;;;;0.72;77.81;97704.13;5034627;28;20064;-80
2022/01/27 06:31:03;;;;;;;53.88;24.88;;;;;;;0.74;77.94;97708.25;5036428;28;20145;-82
2022/01/27 06:33:31;;;;;;;45.83;22.90;;;;;;;0.70;76.89;97721.38;5036786;28;20064;-79
2022/01/27 06:35:58;;;;;;;49.33;24.05;;;;;;;0.67;76.93;97717.25;5034913;28;20050;-80
2022/01/27 06:38:26;;;;;;;46.88;22.77;;;;;;;0.66;77.40;97710.50;5036648;28;20477;-82
2022/01/27 06:40:53;;;;;;;40.88;21.48;;;;;;;0.64;77.21;97722.59;5036154;28;20053;-79
2022/01/27 06:43:21;;;;;;;52.60;23.35;;;;;;;0.59;76.51;97722.03;5036346;28;20053;-80
2022/01/27 06:45:50;;;;;;;52.35;23.58;;;;;;;0.54;75.79;97716.34;5035225;28;20053;-77
2022/01/27 06:48:17;;;;;;;45.40;21.45;;;;;;;0.51;75.97;97716.53;5036164;28;20055;-79
2022/01/27 06:50:50;;;;;;;45.63;22.38;;;;;;;0.48;75.84;97716.69;5035671;28;20053;-78
2022/01/27 06:53:18;;;;;;;47.05;23.17;;;;;;;0.46;75.97;97715.97;5035010;28;20088;-77
2022/01/27 06:55:45;;;;;;;49.17;25.42;;;;;;;0.48;77.00;97709.00;5033108;28;20053;-76
2022/01/27 06:58:13;;;;;;;52.30;24.15;;;;;;;0.50;77.33;97713.13;5033897;28;20045;-75
2022/01/27 07:00:41;;;;;;;46.05;24.17;;;;;;;0.49;76.77;97711.50;5054050;28;20049;-76
2022/01/27 07:03:09;;;;;;;51.15;24.27;;;;;;;0.48;76.60;97709.00;5054104;28;20052;-76
2022/01/27 07:05:39;;;;;;;46.67;22.13;;;;;;;0.46;77.22;97703.97;5053838;28;20075;-78
2022/01/27 07:08:06;;;;;;;45.05;21.95;;;;;;;0.46;76.89;97698.84;5053301;28;20052;-76
2022/01/27 07:10:35;;;;;;;48.75;23.42;;;;;;;0.44;76.73;97699.84;5053640;28;20052;-77
2022/01/27 07:13:03;;;;;;;45.03;22.30;;;;;;;0.40;76.63;97694.91;5053021;28;20052;-78
2022/01/27 07:15:31;;;;;;;48.55;23.05;;;;;;;0.39;76.34;97698.41;5042472;28;20057;-79
2022/01/27 07:17:58;;;;;;;51.38;23.88;;;;;;;0.40;77.42;97710.28;5033665;28;20048;-76
2022/01/27 07:20:27;;;;;;;43.97;22.27;;;;;;;0.41;76.97;97706.78;5033659;28;20061;-77
2022/01/27 07:22:55;;;;;;;51.10;23.80;;;;;;;0.43;77.33;97708.47;5033689;28;20045;-77
2022/01/27 07:25:22;;;;;;;43.78;22.05;;;;;;;0.41;77.39;97708.53;5033438;28;20058;-76
2022/01/27 07:27:51;;;;;;;43.13;20.63;;;;;;;0.38;76.80;97714.69;5033371;28;20053;-77
2022/01/27 07:30:19;;;;;;;49.35;22.27;;;;;;;0.35;76.80;97716.59;5033323;28;20562;-77
2022/01/27 07:32:47;;;;;;;47.60;22.35;;;;;;;0.30;77.18;97718.63;5033503;28;20049;-76
2022/01/27 07:35:14;;;;;;;38.70;18.90;;;;;;;0.29;77.03;97722.94;5033337;28;20049;-77
2022/01/27 07:37:45;;;;;;;39.92;20.33;;;;;;;0.20;76.16;97726.88;5032806;28;20102;-78
2022/01/27 07:40:13;;;;;;;43.60;20.20;;;;;;;0.16;76.32;97725.41;5033907;28;20060;-77
2022/01/27 07:42:40;;;;;;;40.38;20.27;;;;;;;0.12;76.45;97736.75;5034712;28;20060;-79
2022/01/27 07:45:09;;;;;;;40.53;19.95;;;;;;;0.11;76.76;97737.66;5034126;28;20045;-79
2022/01/27 07:47:36;;;;;;;43.47;20.50;;;;;;;0.14;76.80;97747.75;5035674;28;20045;-81
2022/01/27 07:50:05;;;;;;;35.97;18.52;;;;;;;0.13;76.92;97747.81;5034645;28;20049;-79
2022/01/27 07:52:32;;;;;;;39.22;18.25;;;;;;;0.08;77.18;97744.72;5050217;28;20419;-78
2022/01/27 07:55:01;;;;;;;33.65;17.38;;;;;;;0.04;76.90;97743.22;5054419;28;20056;-79
2022/01/27 07:57:29;;;;;;;42.05;20.67;;;;;;;-0.03;76.21;97743.56;5054587;28;20052;-82
2022/01/27 07:59:56;;;;;;;38.72;18.30;;;;;;;-0.05;76.10;97742.00;5055269;28;20045;-80
2022/01/27 08:02:24;;;;;;;39.03;19.13;;;;;;;-0.06;77.21;97733.50;5055526;28;20049;-80
2022/01/27 08:04:52;;;;;;;39.15;18.15;;;;;;;-0.02;77.71;97726.47;5055592;28;20075;-77
2022/01/27 08:07:19;;;;;;;42.20;19.23;;;;;;;-0.01;77.33;97730.66;5055203;28;20056;-78
2022/01/27 08:09:51;;;;;;;38.80;17.92;;;;;;;0.01;77.36;97725.47;5054664;28;20057;-78
2022/01/27 08:12:19;;;;;;;44.45;21.00;;;;;;;0.05;78.04;97735.47;5053104;28;20045;-77
2022/01/27 08:14:47;;;;;;;45.00;19.10;;;;;;;0.10;77.68;97745.44;5053134;28;20128;-76
2022/01/27 08:17:17;;;;;;;38.03;17.73;;;;;;;0.07;77.86;97737.94;5052232;28;20103;-76
2022/01/27 08:19:45;;;;;;;40.05;19.10;;;;;;;0.04;77.37;97738.91;5052837;28;20144;-77
2022/01/27 08:22:12;;;;;;;34.25;15.70;;;;;;;0.01;77.51;97725.47;5052765;28;20052;-75
2022/01/27 08:24:41;;;;;;;32.25;16.83;;;;;;;-0.03;76.95;97725.63;5052902;28;20056;-76
2022/01/27 08:27:12;;;;;;;33.15;16.00;;;;;;;-0.08;76.53;97727.63;5052234;28;20045;-76
2022/01/27 08:30:02;;;;;;;33.92;16.33;;;;;;;-0.13;76.13;97715.97;5051486;28;20071;-77
2022/01/27 08:32:43;;;;;;;32.88;16.65;;;;;;;-0.19;76.69;97709.47;5052718;28;20057;-79
2022/01/27 08:35:11;;;;;;;35.72;16.27;;;;;;;-0.18;76.26;97715.41;5054287;28;20403;-79
2022/01/27 08:37:39;;;;;;;32.95;15.82;;;;;;;-0.25;75.32;97712.38;5053669;28;20045;-78
2022/01/27 08:40:07;;;;;;;33.97;16.98;;;;;;;-0.27;76.46;97712.47;5053370;28;20053;-79
2022/01/27 08:42:55;;;;;;;37.08;17.52;;;;;;;-0.23;77.10;97716.50;5052954;28;20465;-79
2022/01/27 08:45:24;;;;;;;33.33;16.92;;;;;;;-0.17;77.62;97720.47;5052504;28;20060;-76
2022/01/27 08:47:54;;;;;;;34.97;15.60;;;;;;;-0.13;77.38;97718.53;5051808;28;20049;-77
2022/01/27 08:50:24;;;;;;;35.17;16.27;;;;;;;-0.09;77.42;97715.75;5051941;28;20064;-76
2022/01/27 08:52:52;;;;;;;41.47;19.10;;;;;;;-0.07;77.27;97713.06;5033969;28;20061;-77
2022/01/27 08:55:21;;;;;;;41.33;17.83;;;;;;;-0.05;76.74;97717.19;5032312;28;20056;-77
2022/01/27 08:57:49;;;;;;;39.05;18.08;;;;;;;-0.07;76.25;97713.88;5031905;28;20046;-77
2022/01/27 09:00:19;;;;;;;43.65;18.55;;;;;;;-0.09;76.41;97713.16;5032429;28;20057;-77
2022/01/27 09:02:53;;;;;;;36.13;17.38;;;;;;;-0.08;76.66;97714.81;5033089;28;20099;-77
2022/01/27 09:05:21;;;;;;;42.03;18.15;;;;;;;-0.06;76.60;97718.13;5033538;28;20053;-78
2022/01/27 09:07:50;;;;;;;39.70;16.95;;;;;;;-0.05;76.46;97717.19;5034070;28;20045;-78
2022/01/27 09:10:18;;;;;;;41.10;19.90;;;;;;;-0.04;76.57;97720.59;5047867;28;20041;-77
2022/01/27 09:12:45;;;;;;;43.42;19.50;;;;;;;-0.02;77.22;97729.03;5051888;28;20059;-76
2022/01/27 09:15:13;;;;;;;37.15;16.15;;;;;;;0.00;77.28;97727.22;5052147;28;20064;-77
2022/01/27 09:17:40;;;;;;;37.03;17.52;;;;;;;-0.02;77.25;97726.47;5051161;28;20450;-77
2022/01/27 09:20:13;;;;;;;37.03;18.50;;;;;;;-0.09;75.65;97726.00;5051986;28;20053;-77
2022/01/27 09:22:40;;;;;;;39.17;18.08;;;;;;;-0.16;75.46;97737.50;5052508;28;20056;-80
2022/01/27 09:25:14;;;;;;;37.63;17.40;;;;;;;-0.20;76.66;97741.13;5052484;28;20140;-77
2022/01/27 09:27:43;;;;;;;35.78;16.75;;;;;;;-0.17;77.06;97742.72;5052227;28;20530;-80
2022/01/27 09:30:12;;;;;;;43.20;19.45;;;;;;;-0.17;77.75;97755.56;5052929;28;20049;-79
2022/01/27 09:32:40;;;;;;;41.22;18.33;;;;;;;-0.16;77.61;97746.94;5051683;28;20527;-76
2022/01/27 09:35:31;;;;;;;34.20;16.20;;;;;;;-0.18;77.77;97747.00;5052413;28;20053;-76
2022/01/27 09:37:59;;;;;;;36.50;17.45;;;;;;;-0.19;76.86;97747.13;5055498;28;20055;-77
2022/01/27 09:40:29;;;;;;;40.95;17.73;;;;;;;-0.26;76.73;97757.72;5055598;28;20418;-78
2022/01/27 09:42:57;;;;;;;38.20;17.58;;;;;;;-0.33;76.65;97755.56;5055390;28;20103;-76
2022/01/27 09:45:25;;;;;;;41.38;18.52;;;;;;;-0.39;76.02;97756.75;5055591;28;20049;-77
2022/01/27 09:47:58;;;;;;;36.65;15.65;;;;;;;-0.41;76.01;97748.31;5055009;28;20053;-75
2022/01/27 09:50:45;;;;;;;43.03;19.27;;;;;;;-0.39;77.26;97745.63;5055586;28;20133;-78
2022/01/27 09:53:14;;;;;;;37.47;18.38;;;;;;;-0.33;77.41;97746.16;5055375;28;20094;-76
2022/01/27 09:55:41;;;;;;;41.67;19.05;;;;;;;-0.29;77.00;97744.22;5055251;28;20107;-76
2022/01/27 09:58:09;;;;;;;46.05;19.00;;;;;;;-0.32;75.97;97747.78;5055134;28;20076;-78
2022/01/27 10:00:37;;;;;;;42.15;18.58;;;;;;;-0.35;76.26;97744.56;5062395;28;20049;-76
2022/01/27 10:03:07;;;;;;;45.08;18.77;;;;;;;-0.35;77.39;97745.41;5055065;28;20455;-78
2022/01/27 10:05:38;;;;;;;39.50;17.75;;;;;;;-0.33;77.26;97745.31;5055978;28;20084;-78
2022/01/27 10:08:11;;;;;;;47.58;20.58;;;;;;;-0.31;77.67;97756.31;5055801;28;20422;-78
2022/01/27 10:10:41;;;;;;;41.35;17.90;;;;;;;-0.28;77.04;97758.72;5055139;28;20544;-76
2022/01/27 10:13:10;;;;;;;41.92;19.67;;;;;;;-0.29;77.51;97752.75;5055241;28;20396;-77
2022/01/27 10:15:46;;;;;;;39.85;18.98;;;;;;;-0.27;77.38;97755.22;5056142;28;20049;-79
2022/01/27 10:18:14;;;;;;;40.85;17.50;;;;;;;-0.24;77.52;97755.88;5055318;28;20580;-77
2022/01/27 10:20:50;;;;;;;39.22;19.25;;;;;;;-0.19;77.47;97752.25;5043944;28;20045;-77
2022/01/27 10:23:20;;;;;;;33.30;16.42;;;;;;;-0.19;77.05;97753.06;5034913;28;20049;-77
2022/01/27 10:25:52;;;;;;;40.10;19.10;;;;;;;-0.16;77.20;97747.75;5034430;28;20068;-78
2022/01/27 10:28:34;;;;;;;39.88;17.67;;;;;;;-0.13;77.41;97752.72;5034939;28;20045;-76
2022/01/27 10:31:05;;;;;;;37.42;17.83;;;;;;;-0.16;77.21;97747.75;5034845;28;20053;-76
2022/01/27 10:33:48;;;;;;;38.15;19.02;;;;;;;-0.17;76.77;97760.69;5034495;28;20495;-76
2022/01/27 10:36:23;;;;;;;37.10;17.30;;;;;;;-0.17;77.87;97756.38;5034401;28;20431;-75
2022/01/27 10:38:53;;;;;;;36.72;17.88;;;;;;;-0.16;77.11;97752.06;5049051;28;20049;-77
2022/01/27 10:41:21;;;;;;;37.67;17.13;;;;;;;-0.15;76.78;97749.41;5054621;28;20055;-76
2022/01/27 10:43:49;;;;;;;38.58;17.70;;;;;;;-0.15;76.41;97743.44;5054587;28;20529;-78
2022/01/27 10:46:23;;;;;;;36.88;15.90;;;;;;;-0.16;76.19;97732.38;5053448;28;20422;-76
2022/01/27 10:48:57;;;;;;;40.75;14.88;;;;;;;-0.16;75.38;97728.97;5054108;28;20502;-78
2022/01/27 10:51:30;;;;;;;34.20;15.77;;;;;;;-0.16;76.49;97729.81;5047779;28;20095;-76
2022/01/27 10:54:01;;;;;;;;;;;;;;;-0.07;77.54;97721.56;5034917;28;20064;-78
2022/01/27 10:56:31;;;;;;;33.65;15.85;;;;;;;-0.05;76.75;97709.50;5034525;28;20350;-76
2022/01/27 10:59:01;;;;;;;28.70;12.88;;;;;;;-0.02;77.09;97711.91;5035003;28;20491;-78
2022/01/27 11:01:32;;;;;;;29.33;13.98;;;;;;;-0.02;76.32;97709.34;5037357;28;20057;-78
2022/01/27 11:04:02;;;;;;;29.23;13.90;;;;;;;0.00;76.65;97711.81;5036822;28;20438;-79
2022/01/27 11:06:32;;;;;;;30.17;15.32;;;;;;;0.06;76.94;97700.34;5034860;28;20435;-77
2022/01/27 11:09:06;;;;;;;30.45;13.88;;;;;;;0.11;77.60;97703.47;5036929;28;20397;-80
2022/01/27 11:11:35;;;;;;;27.08;13.40;;;;;;;0.14;77.22;97693.88;5035165;28;20061;-80
2022/01/27 11:14:04;;;;;;;29.55;13.75;;;;;;;0.18;77.53;97694.53;5035871;28;20056;-79
2022/01/27 11:16:36;;;;;;;24.33;12.07;;;;;;;0.19;76.70;97685.91;5035583;28;20431;-80
2022/01/27 11:19:18;;;;;;;26.88;14.15;;;;;;;0.21;77.47;97681.50;5035304;28;20419;-82
2022/01/27 11:21:51;;;;;;;28.17;13.13;;;;;;;0.26;77.52;97671.78;5035740;28;20061;-82
2022/01/27 11:24:26;;;;;;;29.70;13.70;;;;;;;0.30;77.66;97673.25;5035086;28;20507;-78
2022/01/27 11:26:57;;;;;;;23.38;12.45;;;;;;;0.34;77.42;97672.16;5034404;28;20049;-78
2022/01/27 11:29:27;;;;;;;21.45;12.55;;;;;;;0.37;76.76;97677.13;5034266;28;20530;-78
2022/01/27 11:32:18;;;;;;;28.55;13.43;;;;;;;0.42;77.88;97671.72;5034555;28;20054;-81
2022/01/27 11:34:48;;;;;;;32.97;14.15;;;;;;;0.47;77.11;97679.13;5030578;28;20561;-78
2022/01/27 11:37:18;;;;;;;30.23;13.93;;;;;;;0.49;77.41;97672.97;5033921;28;20045;-77
2022/01/27 11:39:51;;;;;;;27.58;13.23;;;;;;;0.52;77.04;97671.97;5033735;28;20578;-77
2022/01/27 11:42:21;;;;;;;28.30;13.63;;;;;;;0.56;77.66;97660.59;5033838;28;20060;-78
2022/01/27 11:44:49;;;;;;;29.45;14.65;;;;;;;0.59;77.45;97656.13;5033536;28;20056;-77
2022/01/27 11:47:48;;;;;;;26.02;14.02;;;;;;;0.66;77.55;97658.31;5033027;28;20046;-78
2022/01/27 11:50:31;;;;;;;22.45;12.65;;;;;;;0.69;77.58;97658.09;5033652;28;20101;-77
2022/01/27 11:53:02;;;;;;;28.15;14.43;;;;;;;0.75;76.93;97653.41;5052572;28;20048;-77
2022/01/27 11:55:46;;;;;;;72.28;19.40;;;;;;;0.78;76.73;97648.09;5053039;28;20103;-78